Time;durP1;ratioP1;P1;durP2;ratioP2;P2;SDS_P1;SDS_P2;PMS_P1;PMS_P2;Temp;Humidity;BMP_temperature;BMP_pressure;BME280_temperature;BME280_humidity;BME280_pressure;Samples;Min_cycle;Max_cycle;Signal;HPM_P1;HPM_P2
2022/09/16 07:14:03;;;;;;;1.63;0.43;;;14.10;99.90;;;;;;6243611;22;20214;-78
2022/09/16 07:16:30;;;;;;;1.70;0.40;;;14.20;99.90;;;;;;6278929;22;20549;-75
2022/09/16 07:18:58;;;;;;;3.63;0.43;;;14.30;99.90;;;;;;6272918;22;20179;-76
2022/09/16 07:21:28;;;;;;;2.20;0.57;;;14.30;99.90;;;;;;6276700;22;20198;-73
2022/09/16 07:23:56;;;;;;;2.77;0.43;;;14.40;99.90;;;;;;6276913;22;20179;-76
2022/09/16 07:26:25;;;;;;;1.03;0.40;;;14.40;99.90;;;;;;6276711;22;20213;-80
2022/09/16 07:28:53;;;;;;;0.80;0.40;;;14.40;99.90;;;;;;6277108;22;20630;-75
2022/09/16 07:31:24;;;;;;;1.90;0.43;;;14.60;99.90;;;;;;6279600;22;20198;-75
2022/09/16 07:33:52;;;;;;;1.23;0.40;;;14.60;99.90;;;;;;6279566;22;20178;-74
2022/09/16 07:36:21;;;;;;;3.17;1.00;;;14.60;99.90;;;;;;6288366;22;20189;-74
2022/09/16 07:38:48;;;;;;;2.10;0.53;;;14.60;99.90;;;;;;6287811;22;20665;-73
2022/09/16 07:41:17;;;;;;;1.00;0.40;;;14.60;99.90;;;;;;6287083;22;20199;-69
2022/09/16 07:43:44;;;;;;;2.77;0.40;;;14.50;99.90;;;;;;6284261;22;20183;-79
2022/09/16 07:46:13;;;;;;;3.67;0.50;;;14.50;99.90;;;;;;6276465;22;20687;-69
2022/09/16 07:48:41;;;;;;;1.60;0.47;;;14.40;99.90;;;;;;6275926;22;20197;-68
2022/09/16 07:51:11;;;;;;;1.93;0.43;;;14.60;99.90;;;;;;6272258;22;20194;-80
2022/09/16 07:53:39;;;;;;;1.53;0.60;;;14.70;99.90;;;;;;6277244;22;20205;-79
2022/09/16 07:56:08;;;;;;;2.20;0.50;;;14.90;99.90;;;;;;6276694;22;20178;-74
2022/09/16 07:58:35;;;;;;;1.83;0.83;;;15.00;99.90;;;;;;6276679;22;20181;-71
2022/09/16 08:01:03;;;;;;;0.90;0.40;;;15.20;99.90;;;;;;6276889;22;20198;-71
2022/09/16 08:03:29;;;;;;;1.60;0.37;;;15.40;99.90;;;;;;6275985;22;20236;-74
2022/09/16 08:06:02;;;;;;;1.13;0.40;;;15.50;99.90;;;;;;6276147;22;20531;-77
2022/09/16 08:08:30;;;;;;;0.40;0.23;;;15.80;99.90;;;;;;6276979;22;20210;-72
2022/09/16 08:10:57;;;;;;;1.37;0.50;;;16.00;99.90;;;;;;6276468;22;20201;-76
2022/09/16 08:13:25;;;;;;;0.50;0.30;;;16.00;99.90;;;;;;6277139;22;20191;-79
2022/09/16 08:15:53;;;;;;;0.40;0.23;;;15.90;99.90;;;;;;6275770;22;20627;-74
2022/09/16 08:18:20;;;;;;;0.70;0.40;;;16.00;99.90;;;;;;6272312;22;20175;-80
2022/09/16 08:20:47;;;;;;;1.07;0.30;;;16.10;99.90;;;;;;6275067;22;20205;-75
2022/09/16 08:23:15;;;;;;;1.53;0.37;;;16.10;99.90;;;;;;6275323;22;20185;-68
2022/09/16 08:25:42;;;;;;;0.40;0.27;;;16.10;99.90;;;;;;6275672;22;20202;-80
2022/09/16 08:28:13;;;;;;;0.30;0.20;;;16.10;99.90;;;;;;6273993;22;20258;-76
2022/09/16 08:30:40;;;;;;;1.53;0.30;;;16.10;99.90;;;;;;6269990;22;20207;-79
2022/09/16 08:33:07;;;;;;;1.77;0.60;;;16.00;99.90;;;;;;6275735;22;20183;-72
2022/09/16 08:35:34;;;;;;;1.87;0.40;;;16.10;99.90;;;;;;6276163;22;20179;-74
2022/09/16 08:38:01;;;;;;;1.27;0.30;;;16.10;99.90;;;;;;6275833;22;20175;-75
2022/09/16 08:40:34;;;;;;;1.53;0.53;;;16.20;99.90;;;;;;6275238;22;20217;-72
2022/09/16 08:43:07;;;;;;;3.30;0.33;;;16.40;99.90;;;;;;6275286;22;20371;-75
2022/09/16 08:45:43;;;;;;;1.40;0.43;;;16.40;99.90;;;;;;6275019;22;20199;-77
2022/09/16 08:48:24;;;;;;;0.63;0.33;;;16.40;99.90;;;;;;6275140;22;20179;-79
2022/09/16 08:50:52;;;;;;;1.07;0.33;;;16.20;99.90;;;;;;6272990;22;20198;-76
2022/09/16 08:53:25;;;;;;;1.00;0.30;;;16.10;99.90;;;;;;6275032;22;20181;-73
2022/09/16 08:55:54;;;;;;;0.40;0.30;;;15.80;99.90;;;;;;6275305;22;20178;-79
2022/09/16 08:58:24;;;;;;;1.40;0.53;;;15.50;99.90;;;;;;6271415;22;20178;-78
2022/09/16 09:00:56;;;;;;;1.50;0.30;;;15.10;99.90;;;;;;6276297;22;20281;-73
2022/09/16 09:03:36;;;;;;;1.87;0.30;;;14.90;99.90;;;;;;6274961;22;20181;-77
2022/09/16 09:06:11;;;;;;;2.67;0.37;;;14.80;99.90;;;;;;6276173;22;20685;-72
2022/09/16 09:08:50;;;;;;;3.97;0.40;;;14.60;99.90;;;;;;6274831;22;20201;-70
2022/09/16 09:11:27;;;;;;;0.30;0.20;;;14.50;99.90;;;;;;6275525;22;20203;-74
2022/09/16 09:14:10;;;;;;;1.33;0.30;;;14.50;99.90;;;;;;6275538;22;20188;-68
2022/09/16 09:16:43;;;;;;;2.83;0.30;;;14.40;99.90;;;;;;6275255;22;20179;-71
2022/09/16 09:19:31;;;;;;;2.03;0.50;;;14.50;99.90;;;;;;6275908;22;20206;-78
2022/09/16 09:22:12;;;;;;;1.97;0.30;;;14.50;99.90;;;;;;6276001;22;20205;-69
2022/09/16 09:24:48;;;;;;;2.07;0.40;;;14.80;99.90;;;;;;6274955;22;20183;-70
2022/09/16 09:27:24;;;;;;;2.40;0.50;;;15.00;99.90;;;;;;6275479;22;20210;-69
2022/09/16 09:30:04;;;;;;;0.80;0.40;;;15.20;99.90;;;;;;6274801;22;20174;-67
2022/09/16 09:32:42;;;;;;;2.10;0.40;;;15.30;99.90;;;;;;6274920;22;20460;-68
2022/09/16 09:35:22;;;;;;;1.53;0.77;;;15.50;99.90;;;;;;6275420;22;20174;-68
2022/09/16 09:38:08;;;;;;;1.00;0.40;;;15.60;99.90;;;;;;6274595;22;20179;-72
2022/09/16 09:40:41;;;;;;;1.17;0.50;;;15.60;99.90;;;;;;6276184;22;20195;-71
2022/09/16 09:43:15;;;;;;;1.03;0.40;;;15.70;99.90;;;;;;6276926;22;20175;-72
2022/09/16 09:45:51;;;;;;;0.90;0.40;;;15.60;99.90;;;;;;6276271;22;20284;-69
2022/09/16 09:48:22;;;;;;;0.80;0.30;;;15.80;99.90;;;;;;6276614;22;20186;-71
2022/09/16 09:50:51;;;;;;;3.13;0.50;;;16.00;99.90;;;;;;6277012;22;20198;-72
2022/09/16 09:53:23;;;;;;;3.57;0.40;;;16.10;99.90;;;;;;6276509;22;20205;-73
2022/09/16 09:55:57;;;;;;;1.20;0.40;;;16.20;99.90;;;;;;6276265;22;20183;-69
2022/09/16 09:58:33;;;;;;;3.70;0.40;;;16.40;99.90;;;;;;6276681;22;20175;-71
2022/09/16 10:01:00;;;;;;;0.40;0.20;;;16.50;99.90;;;;;;6276499;22;20248;-72
2022/09/16 10:03:29;;;;;;;0.80;0.30;;;16.70;99.90;;;;;;6276542;22;20179;-67
2022/09/16 10:05:56;;;;;;;0.63;0.63;;;16.70;99.90;;;;;;6276610;22;20203;-67
2022/09/16 10:08:27;;;;;;;0.93;0.50;;;16.80;99.90;;;;;;6277018;22;20189;-68
2022/09/16 10:10:56;;;;;;;0.87;0.30;;;16.90;99.90;;;;;;6276845;22;20195;-68
2022/09/16 10:13:25;;;;;;;0.40;0.30;;;17.10;99.90;;;;;;6276482;22;20186;-68
2022/09/16 10:15:55;;;;;;;0.87;0.40;;;17.30;99.90;;;;;;6275637;22;20183;-66
2022/09/16 10:18:27;;;;;;;1.57;0.40;;;17.40;99.90;;;;;;6276481;22;20555;-68
2022/09/16 10:21:03;;;;;;;1.17;0.33;;;17.50;99.90;;;;;;6275826;22;20685;-72
2022/09/16 10:23:29;;;;;;;1.03;0.50;;;17.60;99.90;;;;;;6275092;22;20626;-69
2022/09/16 10:26:16;;;;;;;0.97;0.30;;;17.70;99.90;;;;;;6274587;22;20650;-69
2022/09/16 10:28:57;;;;;;;0.93;0.77;;;17.60;99.90;;;;;;6276255;22;20261;-68
2022/09/16 10:31:26;;;;;;;3.40;0.40;;;17.80;99.90;;;;;;6276198;22;20516;-71
2022/09/16 10:33:53;;;;;;;1.50;0.30;;;17.90;99.90;;;;;;6275774;22;20178;-72
2022/09/16 10:36:23;;;;;;;1.10;0.20;;;17.80;99.90;;;;;;6275827;22;20183;-73
2022/09/16 10:38:54;;;;;;;0.40;0.30;;;17.40;99.90;;;;;;6276117;22;20175;-72
2022/09/16 10:41:23;;;;;;;2.60;0.30;;;16.80;99.90;;;;;;6276307;22;20216;-72
2022/09/16 10:43:53;;;;;;;0.43;0.30;;;16.10;99.90;;;;;;6276102;22;20631;-72
2022/09/16 10:46:20;;;;;;;0.50;0.30;;;15.80;99.90;;;;;;6276278;22;20203;-69
2022/09/16 10:48:49;;;;;;;1.30;0.40;;;15.40;99.90;;;;;;6275816;22;20725;-73
2022/09/16 10:51:23;;;;;;;2.03;0.40;;;15.10;99.90;;;;;;6276135;22;20201;-73
2022/09/16 10:53:53;;;;;;;1.13;0.50;;;14.80;99.90;;;;;;6276689;22;20176;-69
2022/09/16 10:56:24;;;;;;;2.90;0.50;;;14.70;99.90;;;;;;6276894;22;20233;-72
2022/09/16 10:59:04;;;;;;;0.67;0.60;;;14.70;99.90;;;;;;6276221;22;20577;-71
2022/09/16 11:01:43;;;;;;;0.87;0.50;;;14.80;99.90;;;;;;6276301;22;20195;-72
2022/09/16 11:04:39;;;;;;;2.23;0.43;;;15.00;99.90;;;;;;6276614;22;20179;-70
2022/09/16 11:07:19;;;;;;;1.53;0.60;;;15.30;99.90;;;;;;6250624;22;20281;-72
2022/09/16 11:09:54;;;;;;;2.43;0.70;;;15.40;99.90;;;;;;6275919;22;20174;-71
2022/09/16 11:12:36;;;;;;;0.93;0.43;;;15.60;99.90;;;;;;6276043;22;20203;-71
2022/09/16 11:15:15;;;;;;;2.57;0.60;;;15.70;99.90;;;;;;6272635;22;20187;-74
2022/09/16 11:18:04;;;;;;;0.70;0.53;;;15.90;99.90;;;;;;6274704;22;20277;-72
2022/09/16 11:20:48;;;;;;;1.23;0.60;;;16.10;99.90;;;;;;6275760;22;20195;-73
2022/09/16 11:23:34;;;;;;;1.60;0.40;;;16.30;99.90;;;;;;6275000;22;20174;-73
2022/09/16 11:26:11;;;;;;;3.87;0.60;;;16.30;99.90;;;;;;6275600;22;20403;-72
2022/09/16 11:28:54;;;;;;;3.03;0.73;;;16.20;99.90;;;;;;6275051;22;20805;-73
2022/09/16 11:31:34;;;;;;;1.37;0.40;;;16.20;99.90;;;;;;6275101;22;20233;-73
2022/09/16 11:34:10;;;;;;;0.67;0.30;;;16.50;99.90;;;;;;6274171;22;20240;-72
2022/09/16 11:36:52;;;;;;;0.47;0.33;;;16.60;99.90;;;;;;6274045;22;20465;-73
2022/09/16 11:39:37;;;;;;;0.90;0.33;;;16.70;99.90;;;;;;6275203;22;20185;-72
2022/09/16 11:42:15;;;;;;;1.60;0.37;;;16.70;99.90;;;;;;6275316;22;20492;-73
2022/09/16 11:44:48;;;;;;;0.93;0.30;;;16.60;99.90;;;;;;6274970;22;20179;-72
2022/09/16 11:47:47;;;;;;;2.00;0.30;;;16.60;99.90;;;;;;6275103;22;20202;-72
2022/09/16 11:50:35;;;;;;;1.00;0.30;;;16.30;99.90;;;;;;6272094;22;20174;-72
2022/09/16 11:53:26;;;;;;;0.93;0.37;;;16.40;99.90;;;;;;6277887;22;20181;-73
2022/09/16 11:55:58;;;;;;;0.93;0.37;;;16.50;99.90;;;;;;6277947;22;20178;-72
2022/09/16 11:58:34;;;;;;;5.10;1.60;;;16.70;99.90;;;;;;6278122;22;20263;-71
2022/09/16 12:01:08;;;;;;;1.70;0.30;;;16.60;99.90;;;;;;6277464;22;20670;-71
2022/09/16 12:03:42;;;;;;;1.37;0.37;;;16.50;99.90;;;;;;6277052;22;20178;-73
2022/09/16 12:06:14;;;;;;;1.27;0.20;;;16.50;99.90;;;;;;6276784;22;20179;-72
2022/09/16 12:08:53;;;;;;;1.37;0.33;;;16.10;99.90;;;;;;6277227;22;20181;-72
2022/09/16 12:11:25;;;;;;;2.83;0.47;;;16.00;99.90;;;;;;6276778;22;20208;-72
2022/09/16 12:13:57;;;;;;;1.27;0.37;;;15.70;99.90;;;;;;6277229;22;20270;-72
2022/09/16 12:16:31;;;;;;;1.13;0.30;;;15.20;99.90;;;;;;6276358;22;20507;-71
2022/09/16 12:19:06;;;;;;;2.30;0.50;;;14.90;99.90;;;;;;6276742;22;20175;-72
2022/09/16 12:21:36;;;;;;;5.13;0.47;;;14.90;99.90;;;;;;6277182;22;20202;-72
2022/09/16 12:24:12;;;;;;;0.83;0.40;;;14.90;99.90;;;;;;6276912;22;20179;-72
2022/09/16 12:26:43;;;;;;;0.70;0.20;;;14.80;99.90;;;;;;6277289;22;20202;-72
2022/09/16 12:29:14;;;;;;;1.07;0.30;;;14.70;99.90;;;;;;6277324;22;20178;-72
2022/09/16 12:31:47;;;;;;;1.33;0.50;;;14.50;99.90;;;;;;6276940;22;20512;-69
2022/09/16 12:34:19;;;;;;;1.90;0.20;;;14.20;99.90;;;;;;6277096;22;20175;-73
2022/09/16 12:36:49;;;;;;;2.83;0.30;;;14.10;99.90;;;;;;6277619;22;20179;-73
2022/09/16 12:39:16;;;;;;;1.53;0.30;;;14.20;99.90;;;;;;6277372;22;20175;-71
2022/09/16 12:42:09;;;;;;;1.27;0.30;;;14.20;99.90;;;;;;6277213;22;20194;-72
2022/09/16 12:45:15;;;;;;;3.47;0.50;;;14.30;99.90;;;;;;6276666;22;20649;-73
2022/09/16 12:48:10;;;;;;;3.73;0.87;;;14.40;99.90;;;;;;6277304;22;20297;-72
2022/09/16 12:50:49;;;;;;;0.57;0.20;;;14.40;99.90;;;;;;6277147;22;20217;-72
2022/09/16 12:53:49;;;;;;;0.50;0.20;;;14.50;99.90;;;;;;6277270;22;20175;-72
2022/09/16 12:56:30;;;;;;;1.43;0.30;;;14.50;99.90;;;;;;6276881;22;20185;-72
2022/09/16 12:59:16;;;;;;;2.37;0.20;;;14.70;99.90;;;;;;6277225;22;20175;-73
2022/09/16 13:01:46;;;;;;;1.93;0.30;;;14.90;99.90;;;;;;6276569;22;20202;-73
2022/09/16 13:04:18;;;;;;;2.00;0.20;;;15.10;99.90;;;;;;6276977;22;20237;-73
2022/09/16 13:06:48;;;;;;;1.70;0.50;;;15.30;99.90;;;;;;6276274;22;20685;-73
2022/09/16 13:09:22;;;;;;;0.70;0.30;;;15.40;99.90;;;;;;6277332;22;20210;-73
2022/09/16 13:11:54;;;;;;;0.87;0.20;;;15.60;99.90;;;;;;6238653;22;20216;-70
2022/09/16 13:14:24;;;;;;;0.80;0.30;;;15.70;99.90;;;;;;6216162;23;20259;-70
2022/09/16 13:16:55;;;;;;;0.97;0.20;;;15.60;99.90;;;;;;6215376;23;20184;-67
2022/09/16 13:19:33;;;;;;;0.80;0.20;;;15.70;99.90;;;;;;6215883;23;20190;-67
2022/09/16 13:22:14;;;;;;;1.03;0.33;;;15.80;99.90;;;;;;6215632;23;20210;-75
2022/09/16 13:24:45;;;;;;;1.60;0.20;;;15.90;99.90;;;;;;6206220;23;20186;-70
2022/09/16 13:27:31;;;;;;;4.00;0.40;;;16.00;99.90;;;;;;6214007;23;20232;-71
2022/09/16 13:30:28;;;;;;;0.67;0.10;;;16.10;99.90;;;;;;6213636;23;20625;-68
2022/09/16 13:33:01;;;;;;;0.83;0.30;;;16.20;99.90;;;;;;6213778;23;20501;-70
2022/09/16 13:35:39;;;;;;;2.27;0.30;;;16.00;99.90;;;;;;6214057;23;20188;-68
2022/09/16 13:38:40;;;;;;;3.37;0.40;;;16.00;99.90;;;;;;6213914;23;20180;-73
2022/09/16 13:41:09;;;;;;;0.83;0.40;;;16.10;99.90;;;;;;6214415;23;20275;-74
2022/09/16 13:43:37;;;;;;;1.63;0.23;;;16.00;99.90;;;;;;6214443;23;20177;-71
2022/09/16 13:46:07;;;;;;;1.67;0.50;;;16.00;99.90;;;;;;6213810;23;20260;-69
2022/09/16 13:48:39;;;;;;;2.00;0.47;;;15.90;99.90;;;;;;6213320;23;20208;-69
2022/09/16 13:51:18;;;;;;;1.47;0.73;;;15.40;99.90;;;;;;6213956;23;20224;-71
2022/09/16 13:53:50;;;;;;;1.47;0.30;;;14.80;99.90;;;;;;6213402;23;20475;-70
2022/09/16 13:56:42;;;;;;;0.63;0.30;;;14.50;99.90;;;;;;6213687;23;20478;-68
2022/09/16 13:59:25;;;;;;;0.80;0.37;;;14.00;99.90;;;;;;6208199;23;20177;-71
2022/09/16 14:02:07;;;;;;;1.63;0.30;;;13.60;99.90;;;;;;6213229;23;20259;-67
2022/09/16 14:04:51;;;;;;;0.50;0.20;;;13.60;99.90;;;;;;6214099;23;20180;-68
2022/09/16 14:07:29;;;;;;;0.30;0.10;;;13.70;99.90;;;;;;6213209;23;20231;-67
2022/09/16 14:10:03;;;;;;;1.73;0.20;;;13.90;99.90;;;;;;6214136;23;20187;-68
2022/09/16 14:12:39;;;;;;;0.30;0.20;;;14.10;99.90;;;;;;6213631;23;20184;-68
2022/09/16 14:15:08;;;;;;;1.40;0.20;;;14.30;99.90;;;;;;6212847;23;20180;-71
2022/09/16 14:17:40;;;;;;;0.73;0.20;;;14.30;99.90;;;;;;6214074;23;20180;-69
2022/09/16 14:20:15;;;;;;;0.57;0.30;;;14.40;99.90;;;;;;6213322;23;20176;-70
2022/09/16 14:22:44;;;;;;;1.37;0.30;;;14.40;99.90;;;;;;6212524;23;20486;-69
2022/09/16 14:25:29;;;;;;;1.07;0.20;;;14.40;99.90;;;;;;6213751;23;20180;-71
2022/09/16 14:28:08;;;;;;;0.23;0.10;;;14.50;99.90;;;;;;6213940;23;20286;-68
2022/09/16 14:30:35;;;;;;;1.80;0.10;;;14.40;99.90;;;;;;6213527;23;20196;-67
2022/09/16 14:33:03;;;;;;;0.30;0.20;;;14.60;99.90;;;;;;6214033;23;20263;-66
2022/09/16 14:35:30;;;;;;;0.20;0.10;;;14.80;99.90;;;;;;6213543;23;20621;-67
2022/09/16 14:38:02;;;;;;;0.23;0.10;;;14.90;99.90;;;;;;6215104;23;20180;-69
2022/09/16 14:40:30;;;;;;;1.70;0.20;;;14.80;99.90;;;;;;6214803;23;20197;-66
2022/09/16 14:43:00;;;;;;;1.07;0.50;;;14.80;99.90;;;;;;6215014;23;20184;-68
2022/09/16 14:45:29;;;;;;;0.53;0.00;;;15.00;99.90;;;;;;6214925;23;20181;-67
2022/09/16 14:47:58;;;;;;;0.50;0.20;;;15.00;99.90;;;;;;6212823;23;20317;-68
2022/09/16 14:50:28;;;;;;;0.30;0.10;;;14.90;99.90;;;;;;6213294;23;20200;-67
2022/09/16 14:52:57;;;;;;;0.60;0.20;;;14.80;99.90;;;;;;6214288;23;20180;-68
2022/09/16 14:55:26;;;;;;;0.50;0.10;;;14.70;99.90;;;;;;6208566;23;20196;-67
2022/09/16 14:57:54;;;;;;;0.97;0.10;;;14.80;99.90;;;;;;6212541;23;20176;-69
2022/09/16 15:00:22;;;;;;;0.33;0.10;;;14.70;99.90;;;;;;6212371;23;20228;-70
2022/09/16 15:02:53;;;;;;;0.20;0.10;;;14.60;99.90;;;;;;6212294;23;20188;-69
2022/09/16 15:05:24;;;;;;;0.73;0.10;;;14.60;99.90;;;;;;6212242;23;20180;-69
2022/09/16 15:07:53;;;;;;;0.20;0.10;;;14.50;99.90;;;;;;6212615;23;20206;-68
2022/09/16 15:10:24;;;;;;;0.20;0.00;;;14.60;99.90;;;;;;6211631;23;20706;-69
2022/09/16 15:12:57;;;;;;;0.20;0.10;;;14.60;99.90;;;;;;6212777;23;20211;-69
2022/09/16 15:15:26;;;;;;;0.50;0.10;;;14.60;99.90;;;;;;6211934;23;20215;-69
2022/09/16 15:17:56;;;;;;;0.20;0.13;;;14.60;99.90;;;;;;6212622;23;20231;-68
2022/09/16 15:20:26;;;;;;;1.07;0.03;;;14.50;99.90;;;;;;6213771;23;20200;-68
2022/09/16 15:22:54;;;;;;;0.30;0.10;;;14.50;99.90;;;;;;6214206;23;20509;-68
2022/09/16 15:25:24;;;;;;;0.40;0.10;;;14.50;99.90;;;;;;6215029;23;20227;-68
2022/09/16 15:27:53;;;;;;;1.00;0.20;;;14.50;99.90;;;;;;6215807;23;20246;-68
2022/09/16 15:30:24;;;;;;;0.20;0.10;;;14.60;99.90;;;;;;6215659;23;20667;-67
2022/09/16 15:32:51;;;;;;;0.20;0.00;;;14.60;99.90;;;;;;6210831;23;20176;-68
2022/09/16 15:35:24;;;;;;;0.20;0.10;;;14.70;99.90;;;;;;6213358;23;20648;-67
2022/09/16 15:37:52;;;;;;;0.40;0.10;;;14.60;99.90;;;;;;6214727;23;20259;-69
2022/09/16 15:40:38;;;;;;;0.70;0.10;;;14.70;99.90;;;;;;6213778;23;20244;-71
2022/09/16 15:43:15;;;;;;;0.30;0.10;;;14.80;99.90;;;;;;6212279;23;20497;-68
2022/09/16 15:45:56;;;;;;;0.30;0.20;;;14.80;99.90;;;;;;6214911;23;20180;-68
2022/09/16 15:48:24;;;;;;;0.20;0.17;;;14.90;99.90;;;;;;6215019;23;20200;-69
2022/09/16 15:50:54;;;;;;;0.80;0.20;;;14.90;99.90;;;;;;6214585;23;20197;-69
2022/09/16 15:53:33;;;;;;;0.37;0.20;;;14.90;99.90;;;;;;6215719;23;20199;-69
2022/09/16 15:56:05;;;;;;;2.20;0.70;;;14.90;99.90;;;;;;6213915;23;20199;-69
2022/09/16 15:58:39;;;;;;;0.70;0.23;;;15.00;99.90;;;;;;6215463;23;20207;-70
2022/09/16 16:01:13;;;;;;;1.80;0.20;;;15.20;99.90;;;;;;6216542;23;20200;-70
2022/09/16 16:03:51;;;;;;;0.30;0.10;;;15.40;99.90;;;;;;6216572;23;20212;-69
2022/09/16 16:06:18;;;;;;;0.90;0.20;;;15.30;99.90;;;;;;6216556;23;20176;-69
2022/09/16 16:08:47;;;;;;;1.63;0.37;;;15.10;99.90;;;;;;6215953;23;20204;-69
2022/09/16 16:11:16;;;;;;;0.37;0.10;;;14.90;99.90;;;;;;6216186;23;20258;-69
2022/09/16 16:13:43;;;;;;;0.67;0.20;;;14.70;99.90;;;;;;6216601;23;20483;-69
2022/09/16 16:16:13;;;;;;;0.60;0.20;;;14.60;99.90;;;;;;6216513;23;20180;-69
2022/09/16 16:18:41;;;;;;;1.20;0.20;;;14.70;99.90;;;;;;6216626;23;20183;-70
2022/09/16 16:21:09;;;;;;;1.10;0.30;;;14.70;99.90;;;;;;6216440;23;20219;-70
2022/09/16 16:23:37;;;;;;;1.13;0.20;;;14.50;99.90;;;;;;6216919;23;20176;-69
2022/09/16 16:26:04;;;;;;;0.70;0.20;;;14.60;99.90;;;;;;6216931;23;20176;-70
2022/09/16 16:28:31;;;;;;;0.40;0.20;;;14.60;99.90;;;;;;6216463;23;20208;-69
2022/09/16 16:31:14;;;;;;;0.57;0.27;;;14.50;99.90;;;;;;6216093;23;20202;-70
2022/09/16 16:33:43;;;;;;;1.13;0.10;;;14.50;99.90;;;;;;6216793;23;20176;-70
2022/09/16 16:36:10;;;;;;;0.37;0.10;;;14.30;99.90;;;;;;6216337;23;20183;-70
2022/09/16 16:38:37;;;;;;;1.17;0.27;;;14.20;99.90;;;;;;6216178;23;20647;-69
2022/09/16 16:41:03;;;;;;;0.40;0.13;;;14.00;99.90;;;;;;6216594;23;20201;-70
2022/09/16 16:43:30;;;;;;;1.47;0.13;;;13.90;99.90;;;;;;6216297;23;20183;-70
2022/09/16 16:45:57;;;;;;;0.20;0.20;;;13.90;99.90;;;;;;6215792;23;20643;-70
2022/09/16 16:48:27;;;;;;;2.53;0.70;;;13.70;99.90;;;;;;6215868;23;20696;-70
2022/09/16 16:50:58;;;;;;;1.27;0.30;;;13.60;99.90;;;;;;6216297;23;20721;-70
2022/09/16 16:53:26;;;;;;;0.60;0.20;;;13.40;99.90;;;;;;6216468;23;20183;-69
2022/09/16 16:55:53;;;;;;;0.77;0.30;;;13.20;99.90;;;;;;6216229;23;20193;-69
2022/09/16 16:58:19;;;;;;;1.70;0.27;;;13.10;99.90;;;;;;6216267;23;20187;-69
2022/09/16 17:00:47;;;;;;;3.50;0.30;;;13.10;99.90;;;;;;6216107;23;20203;-70
2022/09/16 17:03:15;;;;;;;0.90;0.10;;;13.00;99.90;;;;;;6215811;23;20544;-70
2022/09/16 17:05:43;;;;;;;1.80;0.30;;;13.00;99.90;;;;;;6216152;23;20187;-70
2022/09/16 17:08:10;;;;;;;0.73;0.20;;;12.90;99.90;;;;;;6216102;23;20204;-69
2022/09/16 17:10:36;;;;;;;0.27;0.10;;;13.00;99.90;;;;;;6215590;23;20196;-69
2022/09/16 17:13:03;;;;;;;1.07;0.37;;;12.90;99.90;;;;;;6216189;23;20562;-69
2022/09/16 17:15:30;;;;;;;1.67;0.10;;;12.90;99.90;;;;;;6215699;23;20176;-69
2022/09/16 17:17:57;;;;;;;1.53;0.20;;;12.80;99.90;;;;;;6214664;23;20176;-69
2022/09/16 17:20:24;;;;;;;2.63;0.20;;;12.80;99.90;;;;;;6215028;23;20279;-69
2022/09/16 17:22:52;;;;;;;1.60;0.20;;;12.70;99.90;;;;;;6215734;23;20191;-69
2022/09/16 17:25:18;;;;;;;2.20;0.20;;;12.60;99.90;;;;;;6215579;23;20505;-68
2022/09/16 17:27:45;;;;;;;3.67;0.30;;;12.70;99.90;;;;;;6215837;23;20263;-67
2022/09/16 17:30:13;;;;;;;0.50;0.37;;;12.50;99.90;;;;;;6212638;23;20203;-67
2022/09/16 17:32:40;;;;;;;2.03;0.20;;;12.50;99.90;;;;;;6214943;23;20187;-68
2022/09/16 17:35:07;;;;;;;1.10;0.30;;;12.60;99.90;;;;;;6215193;23;20263;-67
2022/09/16 17:37:34;;;;;;;1.07;0.30;;;12.50;99.90;;;;;;6215574;23;20176;-68
2022/09/16 17:40:03;;;;;;;1.20;0.17;;;12.50;99.90;;;;;;6214330;23;20183;-68
2022/09/16 17:42:30;;;;;;;1.50;0.30;;;12.50;99.90;;;;;;6215035;23;20183;-68
2022/09/16 17:44:57;;;;;;;0.40;0.20;;;12.60;99.90;;;;;;6214318;23;20176;-69
2022/09/16 17:47:24;;;;;;;0.47;0.20;;;12.60;99.90;;;;;;6214643;23;20182;-68
2022/09/16 17:49:51;;;;;;;0.47;0.27;;;12.70;99.90;;;;;;6214143;23;20208;-68
2022/09/16 17:52:18;;;;;;;2.30;0.27;;;12.70;99.90;;;;;;6213561;23;20533;-68
2022/09/16 17:54:45;;;;;;;1.93;0.43;;;12.60;99.90;;;;;;6213346;23;20206;-68
2022/09/16 17:57:13;;;;;;;2.20;0.20;;;12.70;99.90;;;;;;6214084;23;20633;-68
2022/09/16 17:59:39;;;;;;;0.50;0.23;;;12.60;99.90;;;;;;6212797;23;20368;-67
2022/09/16 18:02:08;;;;;;;3.77;0.57;;;12.50;99.90;;;;;;6214011;23;20196;-68
2022/09/16 18:04:34;;;;;;;1.27;0.50;;;12.50;99.90;;;;;;6214476;23;20183;-68
2022/09/16 18:07:01;;;;;;;1.30;0.40;;;12.50;99.90;;;;;;6214576;23;20177;-68
2022/09/16 18:09:28;;;;;;;1.30;0.50;;;12.50;99.90;;;;;;6214343;23;20545;-68
2022/09/16 18:11:57;;;;;;;2.40;0.50;;;12.60;99.90;;;;;;6208876;23;20205;-70
2022/09/16 18:14:25;;;;;;;4.07;0.60;;;12.60;99.90;;;;;;6209636;23;20585;-69
2022/09/16 18:16:52;;;;;;;1.50;0.40;;;12.60;99.90;;;;;;6212664;23;20179;-72
2022/09/16 18:19:19;;;;;;;1.97;0.60;;;12.60;99.90;;;;;;6212443;23;20250;-69
2022/09/16 18:21:46;;;;;;;0.87;0.50;;;12.70;99.90;;;;;;6212178;23;20521;-68
2022/09/16 18:24:13;;;;;;;3.23;0.50;;;12.70;99.90;;;;;;6212769;23;20177;-70
2022/09/16 18:26:40;;;;;;;3.40;0.67;;;12.60;99.90;;;;;;6212256;23;20656;-69
2022/09/16 18:29:08;;;;;;;0.70;0.30;;;12.60;99.90;;;;;;6213038;23;20215;-69
2022/09/16 18:31:36;;;;;;;2.43;0.47;;;12.60;99.90;;;;;;6210615;23;20196;-69
2022/09/16 18:34:03;;;;;;;1.27;0.40;;;12.50;99.90;;;;;;6212202;23;20186;-69
2022/09/16 18:36:31;;;;;;;1.80;0.40;;;12.50;99.90;;;;;;6213025;23;20177;-69
2022/09/16 18:38:58;;;;;;;1.40;0.50;;;12.50;99.90;;;;;;6212052;23;20231;-70
2022/09/16 18:41:28;;;;;;;0.70;0.60;;;12.50;99.90;;;;;;6212366;23;20526;-70
2022/09/16 18:43:56;;;;;;;2.30;0.50;;;12.40;99.90;;;;;;6212950;23;20176;-69
2022/09/16 18:46:25;;;;;;;1.57;0.40;;;12.40;99.90;;;;;;6212422;23;20632;-70
2022/09/16 18:48:54;;;;;;;1.07;0.30;;;12.30;99.90;;;;;;6212530;23;20204;-70
2022/09/16 18:51:23;;;;;;;4.30;0.50;;;12.20;99.90;;;;;;6212652;23;20196;-70
2022/09/16 18:53:51;;;;;;;1.30;0.57;;;12.10;99.90;;;;;;6212968;23;20644;-71
2022/09/16 18:56:20;;;;;;;4.40;0.63;;;12.10;99.90;;;;;;6210997;23;20656;-70
2022/09/16 18:58:47;;;;;;;2.60;0.60;;;12.10;99.90;;;;;;6213283;23;20262;-70
2022/09/16 19:01:23;;;;;;;1.13;0.30;;;12.00;99.90;;;;;;6211170;23;20200;-72
2022/09/16 19:03:50;;;;;;;2.53;0.50;;;12.00;99.90;;;;;;6213528;23;20187;-71
2022/09/16 19:06:19;;;;;;;2.33;0.40;;;11.90;99.90;;;;;;6214790;23;20191;-73
2022/09/16 19:08:46;;;;;;;1.80;0.53;;;11.80;99.90;;;;;;6214849;23;20210;-73
2022/09/16 19:11:14;;;;;;;0.80;0.50;;;11.80;99.90;;;;;;6214557;23;20204;-72
2022/09/16 19:13:42;;;;;;;2.03;0.60;;;11.90;99.90;;;;;;6215689;23;20219;-68
2022/09/16 19:16:10;;;;;;;1.27;0.57;;;11.90;99.90;;;;;;6216123;23;20183;-68
2022/09/16 19:18:37;;;;;;;4.20;0.60;;;11.90;99.90;;;;;;6216104;23;20546;-68
2022/09/16 19:21:04;;;;;;;1.07;0.40;;;12.00;99.90;;;;;;6216544;23;20200;-68
2022/09/16 19:23:32;;;;;;;2.43;0.60;;;12.10;99.90;;;;;;6216402;23;20187;-68
2022/09/16 19:26:03;;;;;;;2.37;0.70;;;12.20;99.90;;;;;;6216349;23;20181;-70
2022/09/16 19:28:31;;;;;;;2.30;0.80;;;12.20;99.90;;;;;;6216186;23;20180;-70
2022/09/16 19:31:02;;;;;;;3.07;0.70;;;12.20;99.90;;;;;;6216278;23;20235;-68
2022/09/16 19:33:29;;;;;;;1.70;0.60;;;12.10;99.90;;;;;;6216663;23;20231;-68
2022/09/16 19:35:56;;;;;;;2.77;0.77;;;12.00;99.90;;;;;;6216538;23;20180;-68
2022/09/16 19:38:23;;;;;;;1.20;0.50;;;12.00;99.90;;;;;;6216424;23;20238;-68
2022/09/16 19:41:00;;;;;;;1.43;0.50;;;12.00;99.90;;;;;;6216463;23;20212;-68
2022/09/16 19:43:27;;;;;;;2.87;0.60;;;12.00;99.90;;;;;;6216362;23;20183;-69
2022/09/16 19:45:55;;;;;;;4.03;0.63;;;12.00;99.90;;;;;;6216050;23;20177;-69
2022/09/16 19:48:21;;;;;;;2.73;0.60;;;11.90;99.90;;;;;;6216298;23;20255;-69
2022/09/16 19:50:51;;;;;;;0.57;0.40;;;11.90;99.90;;;;;;6216156;23;20290;-69
2022/09/16 19:53:18;;;;;;;0.90;0.50;;;12.00;99.90;;;;;;6216036;23;20645;-69
2022/09/16 19:55:45;;;;;;;0.57;0.40;;;12.00;99.90;;;;;;6216651;23;20236;-69
2022/09/16 19:58:13;;;;;;;2.07;0.60;;;12.00;99.90;;;;;;6215937;23;20187;-69
2022/09/16 20:00:40;;;;;;;2.20;0.50;;;11.90;99.90;;;;;;6215694;23;20524;-69
2022/09/16 20:03:07;;;;;;;3.10;0.53;;;11.90;99.90;;;;;;6216334;23;20176;-69
2022/09/16 20:05:34;;;;;;;2.80;0.70;;;11.90;99.90;;;;;;6216116;23;20176;-68
2022/09/16 20:08:01;;;;;;;1.60;0.57;;;11.80;99.90;;;;;;6216218;23;20180;-69
2022/09/16 20:10:27;;;;;;;1.67;0.70;;;11.80;99.90;;;;;;6215397;23;20212;-69
2022/09/16 20:12:55;;;;;;;3.80;0.60;;;11.80;99.90;;;;;;6216194;23;20180;-69
2022/09/16 20:15:23;;;;;;;3.03;0.60;;;11.70;99.90;;;;;;6215928;23;20177;-69
2022/09/16 20:17:50;;;;;;;3.93;0.70;;;11.70;99.90;;;;;;6215800;23;20176;-69
2022/09/16 20:20:17;;;;;;;1.57;0.50;;;11.70;99.90;;;;;;6215485;23;20184;-69
2022/09/16 20:22:43;;;;;;;1.93;0.70;;;11.70;99.90;;;;;;6216370;23;20860;-69
2022/09/16 20:25:10;;;;;;;2.43;0.67;;;11.70;99.90;;;;;;6216113;23;20186;-68